Time;durP1;ratioP1;P1;durP2;ratioP2;P2;SDS_P1;SDS_P2;PMS_P1;PMS_P2;Temp;Humidity;BMP_temperature;BMP_pressure;BME280_temperature;BME280_humidity;BME280_pressure;Samples;Min_cycle;Max_cycle;Signal;HPM_P1;HPM_P2
2022/01/22 00:00:52;;;;;;;6.17;1.80;;;;;;;-2.52;76.86;100961.25;4955799;28;20043;-76
2022/01/22 00:03:18;;;;;;;3.87;1.70;;;;;;;-2.53;76.90;100960.38;4949992;28;20122;-77
2022/01/22 00:05:44;;;;;;;3.20;2.00;;;;;;;-2.50;77.46;100963.19;4950781;28;20119;-78
2022/01/22 00:08:09;;;;;;;2.73;1.77;;;;;;;-2.61;76.54;100941.91;4950329;28;20082;-75
2022/01/22 00:10:37;;;;;;;5.40;2.03;;;;;;;-2.54;76.60;100963.66;4970386;28;20042;-77
2022/01/22 00:15:30;;;;;;;2.63;1.50;;;;;;;-2.70;77.68;100960.38;4989901;28;20051;-79
2022/01/22 00:17:57;;;;;;;4.40;1.87;;;;;;;-2.66;77.93;100965.88;4989309;28;20065;-73
2022/01/22 00:20:25;;;;;;;4.20;2.40;;;;;;;-2.55;79.70;100978.69;4989882;28;20034;-75
2022/01/22 00:22:51;;;;;;;3.93;1.90;;;;;;;-2.61;81.82;100971.38;5006953;28;20504;-73
2022/01/22 00:25:18;;;;;;;4.03;2.20;;;;;;;-2.83;83.34;100968.38;5011353;28;20096;-76
2022/01/22 00:27:46;;;;;;;3.47;1.97;;;;;;;-2.95;84.31;100983.22;4979841;28;20046;-77
2022/01/22 00:30:15;;;;;;;5.60;2.20;;;;;;;-3.30;85.26;100933.53;4973195;28;22089;-76
2022/01/22 00:32:40;;;;;;;3.83;2.08;;;;;;;-3.25;87.14;100954.19;4972266;28;20485;-76
2022/01/22 00:35:07;;;;;;;5.53;2.70;;;;;;;-3.28;88.24;100954.78;4973334;28;20054;-76
2022/01/22 00:37:34;;;;;;;6.30;2.93;;;;;;;-3.22;89.85;100967.13;4970306;28;20023;-78
2022/01/22 00:40:03;;;;;;;7.73;3.00;;;;;;;-3.25;92.03;100960.13;4973309;28;20030;-75
2022/01/22 00:42:29;;;;;;;5.20;3.00;;;;;;;-3.43;93.85;100941.53;4953481;28;20031;-79
2022/01/22 00:44:54;;;;;;;7.97;4.23;;;;;;;-3.26;93.94;100965.91;4971517;28;20030;-75
2022/01/22 00:47:20;;;;;;;6.53;3.80;;;;;;;-3.04;94.14;100972.19;4953225;28;20583;-78
2022/01/22 00:49:47;;;;;;;7.20;4.37;;;;;;;-2.82;93.70;100976.09;4971221;28;20072;-82
2022/01/22 00:52:12;;;;;;;10.03;4.97;;;;;;;-3.16;92.69;100888.56;4969722;28;20041;-78
2022/01/22 00:54:38;;;;;;;9.50;4.73;;;;;;;-2.66;91.47;100962.47;4960665;28;20083;-78
2022/01/22 00:57:04;;;;;;;6.87;3.83;;;;;;;-2.45;91.16;100973.75;4974247;28;20529;-78
2022/01/22 00:59:30;;;;;;;7.30;3.90;;;;;;;-2.44;93.04;100971.38;4970645;28;20145;-79
2022/01/22 01:01:55;;;;;;;9.00;4.50;;;;;;;-2.67;95.21;100956.50;4970306;28;20163;-81
2022/01/22 01:04:21;;;;;;;9.73;5.70;;;;;;;-2.68;97.04;100966.47;4953771;28;20027;-75
2022/01/22 01:06:47;;;;;;;7.63;4.53;;;;;;;-2.96;96.94;100925.88;4970145;28;20037;-80
2022/01/22 01:09:13;;;;;;;7.30;4.50;;;;;;;-3.05;97.92;100937.56;4971099;28;20496;-76
2022/01/22 01:11:46;;;;;;;26.07;11.50;;;;;;;-2.94;98.52;100979.94;4971766;28;20062;-75
2022/01/22 01:14:18;;;;;;;12.73;6.70;;;;;;;-2.95;98.99;100966.44;4970340;28;20470;-75
2022/01/22 01:33:20;;;;;;;9.10;5.03;;;;;;;-2.78;96.20;100945.34;4972320;28;20487;-73
2022/01/22 01:35:46;;;;;;;9.03;5.00;;;;;;;-2.71;95.92;100938.38;4996493;28;20042;-69
2022/01/22 01:38:11;;;;;;;8.87;5.63;;;;;;;-2.69;95.76;100950.41;4953789;28;20262;-68
2022/01/22 01:40:41;;;;;;;8.03;5.03;;;;;;;-2.77;96.58;100941.19;4971079;28;20026;-68
2022/01/22 01:43:18;;;;;;;;;;;;;;;-2.74;95.55;100938.06;4971304;28;20572;-68
2022/01/22 01:45:43;;;;;;;9.60;4.57;;;;;;;-3.32;96.13;100848.28;4970914;28;20008;-69
2022/01/22 01:48:15;;;;;;;8.57;4.40;;;;;;;-2.99;96.58;100936.56;4970934;28;20529;-69
2022/01/22 01:50:42;;;;;;;5.30;3.70;;;;;;;-3.19;96.54;100954.81;4970984;28;20027;-69
2022/01/22 01:58:19;;;;;;;4.43;2.77;;;;;;;-3.85;98.42;100923.84;4895228;29;20644;-69
2022/01/22 02:00:46;;;;;;;10.13;4.63;;;;;;;-3.89;99.63;100911.63;4891965;29;20072;-68
2022/01/22 02:03:13;;;;;;;7.80;4.40;;;;;;;-3.70;99.67;100928.63;4892042;29;20044;-70
2022/01/22 02:05:39;;;;;;;8.40;4.40;;;;;;;-3.87;99.83;100922.78;4894376;29;20487;-67
2022/01/22 02:08:06;;;;;;;7.13;4.57;;;;;;;-3.98;100.00;100919.16;4892478;29;20119;-68
2022/01/22 02:10:38;;;;;;;8.50;5.30;;;;;;;-4.00;100.00;100919.75;4892678;29;20135;-69
2022/01/22 02:24:02;;;;;;;6.33;3.67;;;;;;;-4.50;100.00;100924.75;4896208;29;20031;-70
2022/01/22 02:26:29;;;;;;;8.33;4.53;;;;;;;-4.52;100.00;100918.69;4911836;29;20048;-70
2022/01/22 02:28:55;;;;;;;5.67;3.67;;;;;;;-4.59;100.00;100916.25;4896102;29;20060;-70
2022/01/22 02:31:36;;;;;;;11.87;4.33;;;;;;;-4.53;100.00;100911.88;4899705;29;20037;-74
2022/01/22 02:36:34;;;;;;;7.50;4.33;;;;;;;-4.59;100.00;100902.03;4968454;28;20222;-70
2022/01/22 02:41:28;;;;;;;8.70;3.73;;;;;;;-4.43;99.79;100916.25;4974534;28;20031;-69
2022/01/22 02:43:55;;;;;;;6.27;4.07;;;;;;;-4.40;99.30;100879.66;4974345;28;20027;-71
2022/01/22 02:46:24;;;;;;;10.30;4.70;;;;;;;-4.01;99.15;100903.72;4974728;28;20038;-69
2022/01/22 02:48:52;;;;;;;6.95;3.88;;;;;;;-3.74;97.26;100902.19;4974828;28;20051;-73
2022/01/22 02:51:17;;;;;;;6.67;3.77;;;;;;;-3.71;96.30;100892.44;4974506;28;20058;-72
2022/01/22 02:53:43;;;;;;;7.50;4.17;;;;;;;-3.55;96.43;100888.91;4974440;28;20062;-71
2022/01/22 02:56:09;;;;;;;7.43;4.00;;;;;;;-3.39;96.06;100912.41;4973974;28;20031;-71
2022/01/22 02:58:36;;;;;;;9.47;4.07;;;;;;;-3.32;95.84;100909.75;4974072;28;20069;-70
2022/01/22 03:01:02;;;;;;;9.97;4.53;;;;;;;-3.49;95.21;100909.72;4971994;28;20066;-71
2022/01/22 03:03:27;;;;;;;7.53;5.20;;;;;;;-3.74;94.70;100866.88;4974001;28;20125;-67
2022/01/22 03:05:53;;;;;;;8.47;5.37;;;;;;;-3.64;94.18;100893.94;4974130;28;20037;-68
2022/01/22 03:08:19;;;;;;;8.90;5.80;;;;;;;-3.94;94.17;100857.31;4974076;28;20035;-69
2022/01/22 03:10:50;;;;;;;8.27;4.40;;;;;;;-3.94;94.73;100885.97;4955713;28;20047;-68
2022/01/22 03:13:55;;;;;;;9.90;5.17;;;;;;;-4.24;95.31;100899.75;4973773;28;20452;-72
2022/01/22 03:16:12;;;;;;;10.93;5.47;;;;;;;-4.05;95.71;100901.63;4974080;28;20042;-68
2022/01/22 03:29:12;;;;;;;6.83;3.13;;;;;;;-4.33;92.34;100895.41;4973617;28;20034;-71
2022/01/22 03:31:38;;;;;;;6.73;2.90;;;;;;;-4.51;92.91;100885.22;4972492;28;20054;-71
2022/01/22 03:34:04;;;;;;;5.60;2.73;;;;;;;-4.63;93.17;100888.97;4973597;28;20477;-72
2022/01/22 03:36:33;;;;;;;5.50;2.87;;;;;;;-4.63;93.43;100884.81;4973980;28;20027;-73
2022/01/22 03:38:59;;;;;;;5.83;2.97;;;;;;;-4.64;92.78;100882.16;4973374;28;20045;-70
2022/01/22 03:41:24;;;;;;;5.00;2.80;;;;;;;-4.84;93.26;100863.31;4973350;28;20039;-73
2022/01/22 03:43:54;;;;;;;5.03;3.40;;;;;;;-4.93;94.10;100867.41;4972050;28;20037;-71
2022/01/22 03:46:21;;;;;;;8.45;3.58;;;;;;;-4.96;94.59;100852.88;4973083;28;20472;-73
2022/01/22 03:48:46;;;;;;;5.87;3.10;;;;;;;-5.11;95.02;100821.97;4973026;28;20059;-72
2022/01/22 03:51:12;;;;;;;11.37;3.67;;;;;;;-4.83;95.83;100881.88;4973319;28;20100;-71
2022/01/22 03:53:38;;;;;;;7.80;2.70;;;;;;;-4.88;95.11;100861.22;4973065;28;20026;-72
2022/01/22 03:56:05;;;;;;;6.10;3.23;;;;;;;-5.10;95.69;100823.72;4973330;28;20038;-71
2022/01/22 03:58:33;;;;;;;7.63;3.20;;;;;;;-4.77;95.84;100875.84;4973163;28;20519;-77
2022/01/22 04:01:23;;;;;;;7.13;2.80;;;;;;;-4.81;95.67;100868.69;4955364;28;20030;-71
2022/01/22 04:03:54;;;;;;;4.63;2.57;;;;;;;-4.79;95.64;100864.69;4972714;28;20082;-73
2022/01/22 04:09:06;;;;;;;7.30;3.67;;;;;;;-4.56;94.58;100866.19;4972845;28;20174;-72
2022/01/22 04:11:36;;;;;;;6.33;3.00;;;;;;;-4.50;93.72;100874.38;4972799;28;20019;-74
2022/01/22 04:14:04;;;;;;;8.30;3.55;;;;;;;-4.43;93.20;100876.78;4955484;28;20029;-71
2022/01/22 04:16:31;;;;;;;7.07;2.47;;;;;;;-4.42;93.00;100878.59;4972708;28;20076;-75
2022/01/22 04:27:12;;;;;;;4.47;2.40;;;;;;;-4.41;93.09;100872.81;4972642;28;20093;-71
2022/01/22 04:29:37;;;;;;;2.27;1.17;;;;;;;-4.72;92.57;100815.88;4972270;28;20035;-71
2022/01/22 04:32:04;;;;;;;6.47;2.37;;;;;;;-4.35;92.77;100867.50;4972472;28;20783;-70
2022/01/22 04:34:29;;;;;;;5.70;2.70;;;;;;;-4.45;92.88;100867.28;4972487;28;20035;-75
2022/01/22 04:36:55;;;;;;;3.67;2.27;;;;;;;-4.43;93.11;100874.28;4972202;28;20023;-71
2022/01/22 04:39:22;;;;;;;6.67;3.70;;;;;;;-4.65;93.17;100845.97;4972597;28;20027;-75
2022/01/22 04:41:48;;;;;;;6.90;3.30;;;;;;;-4.53;93.53;100875.72;4972307;28;20065;-74
2022/01/22 04:47:47;;;;;;;5.90;2.43;;;;;;;-4.64;94.20;100889.69;5022390;23;20065;-71
2022/01/22 04:55:39;;;;;;;6.17;2.27;;;;;;;-5.10;95.02;100823.72;4977731;28;20049;-71
2022/01/22 04:58:06;;;;;;;5.60;3.60;;;;;;;-4.84;95.39;100873.41;4972467;28;20025;-75
2022/01/22 05:00:34;;;;;;;6.30;3.27;;;;;;;-4.83;95.67;100881.88;4972205;28;20089;-72
2022/01/22 05:03:01;;;;;;;6.17;3.00;;;;;;;-4.85;95.25;100884.19;4972496;28;20062;-69
2022/01/22 05:05:27;;;;;;;5.67;2.80;;;;;;;-4.89;95.25;100879.59;4972214;28;20081;-73
2022/01/22 05:07:52;;;;;;;5.07;2.80;;;;;;;-4.77;95.17;100902.63;4972292;28;20059;-70
2022/01/22 05:10:19;;;;;;;6.23;3.60;;;;;;;-5.16;95.16;100828.09;4972273;28;20039;-72
2022/01/22 05:12:45;;;;;;;4.47;2.27;;;;;;;-4.75;94.44;100888.56;4972375;28;20034;-73
2022/01/22 05:15:11;;;;;;;5.20;2.60;;;;;;;-4.94;94.37;100874.06;4972259;28;20053;-74
2022/01/22 05:17:39;;;;;;;6.77;3.03;;;;;;;-4.96;95.17;100872.13;4972489;28;20046;-71
2022/01/22 05:20:19;;;;;;;3.30;2.05;;;;;;;-4.86;94.91;100887.44;4971915;28;20054;-69
2022/01/22 05:25:37;;;;;;;9.67;3.70;;;;;;;-4.97;96.20;100890.47;4971888;28;20505;-71
2022/01/22 05:33:27;;;;;;;5.87;3.73;;;;;;;-5.02;97.15;100884.97;4972169;28;20542;-74
2022/01/22 05:38:35;;;;;;;7.83;2.97;;;;;;;-5.27;97.55;100863.84;4971795;28;20062;-74
2022/01/22 05:41:00;;;;;;;7.53;3.10;;;;;;;-5.11;97.74;100883.97;4971726;28;20039;-71
2022/01/22 05:43:26;;;;;;;7.63;3.90;;;;;;;-5.21;98.09;100884.63;4971597;28;20078;-75
2022/01/22 05:45:52;;;;;;;9.67;3.77;;;;;;;-5.25;98.23;100869.94;4971472;28;20045;-71
2022/01/22 05:48:18;;;;;;;8.03;3.73;;;;;;;-5.10;98.07;100888.28;4972229;28;20026;-71
2022/01/22 05:51:00;;;;;;;3.57;2.73;;;;;;;-5.26;98.00;100871.59;4975920;28;20121;-71
2022/01/22 06:01:14;;;;;;;5.75;3.10;;;;;;;-5.12;98.70;100890.66;4975476;28;20409;-74
2022/01/22 06:03:40;;;;;;;10.07;4.07;;;;;;;-5.20;99.04;100878.88;4974889;28;20035;-78
2022/01/22 06:06:05;;;;;;;7.70;4.30;;;;;;;-5.11;99.48;100882.38;4974915;28;20035;-75
2022/01/22 06:08:34;;;;;;;4.07;2.60;;;;;;;-5.00;98.67;100887.63;4975195;28;20027;-72
2022/01/22 06:11:07;;;;;;;5.65;3.10;;;;;;;-4.91;98.05;100881.03;4975195;28;20105;-69
2022/01/22 06:13:44;;;;;;;7.43;3.70;;;;;;;-4.77;97.82;100878.34;4974926;28;20066;-72
2022/01/22 06:16:11;;;;;;;5.60;2.87;;;;;;;-5.01;96.82;100826.31;4974859;28;20030;-69
2022/01/22 06:18:36;;;;;;;6.73;3.30;;;;;;;-4.69;96.51;100860.63;4975412;28;20029;-70
2022/01/22 06:21:03;;;;;;;5.40;3.37;;;;;;;-4.66;96.55;100873.53;4975096;28;20035;-70
2022/01/22 06:23:29;;;;;;;6.17;3.60;;;;;;;-4.61;96.22;100874.88;4975789;28;20077;-72
2022/01/22 06:25:58;;;;;;;7.67;3.20;;;;;;;-4.61;96.68;100864.81;4994116;28;20117;-70
2022/01/22 06:28:23;;;;;;;8.90;4.35;;;;;;;-4.59;96.94;100850.75;4994338;28;20030;-75
2022/01/22 06:30:49;;;;;;;9.20;5.20;;;;;;;-4.58;96.70;100842.47;4994066;28;20041;-75
2022/01/22 06:33:14;;;;;;;6.20;3.83;;;;;;;-4.51;97.04;100859.09;4994420;28;20085;-67
2022/01/22 06:35:40;;;;;;;6.47;3.07;;;;;;;-4.53;96.79;100846.34;4994109;28;20477;-69
2022/01/22 06:38:07;;;;;;;9.37;4.13;;;;;;;-4.44;96.74;100856.47;4943609;28;20038;-71
2022/01/22 06:42:57;;;;;;;8.37;4.23;;;;;;;-5.20;96.60;100707.72;4994103;28;20473;-72
2022/01/22 06:45:23;;;;;;;8.43;4.77;;;;;;;-4.52;95.74;100801.88;4993728;28;20030;-70
2022/01/22 06:47:48;;;;;;;10.03;4.50;;;;;;;-4.16;95.41;100849.19;4994069;28;20051;-70
2022/01/22 06:50:14;;;;;;;9.03;3.57;;;;;;;-4.12;94.72;100844.63;4993901;28;20416;-73
2022/01/22 06:52:40;;;;;;;7.87;4.53;;;;;;;-4.06;95.16;100832.66;4993837;28;20026;-71
2022/01/22 06:55:06;;;;;;;11.03;4.10;;;;;;;-4.15;94.82;100790.47;4993562;28;20475;-73
2022/01/22 06:57:32;;;;;;;5.23;2.83;;;;;;;-3.74;93.50;100834.06;4993910;28;20036;-72
2022/01/22 06:59:58;;;;;;;7.27;4.40;;;;;;;-3.63;93.45;100825.06;4992806;28;20121;-73
2022/01/22 07:02:24;;;;;;;11.33;5.87;;;;;;;-3.63;92.68;100809.91;4993520;28;20057;-71
2022/01/22 07:04:50;;;;;;;4.13;1.97;;;;;;;-3.46;91.38;100820.03;4993913;28;20034;-72
2022/01/22 07:07:15;;;;;;;16.33;8.77;;;;;;;-3.56;91.49;100771.94;4993573;28;20077;-70
2022/01/22 07:09:41;;;;;;;18.13;8.67;;;;;;;-3.20;91.10;100824.22;4993363;28;20034;-70
2022/01/22 07:12:07;;;;;;;7.17;3.47;;;;;;;-3.28;90.15;100794.81;4983885;28;20066;-72
2022/01/22 07:14:33;;;;;;;7.07;2.77;;;;;;;-3.10;89.74;100826.03;4973766;28;20038;-70
2022/01/22 07:16:58;;;;;;;6.77;3.87;;;;;;;-2.96;90.30;100815.59;4973822;28;20559;-70
2022/01/22 07:19:24;;;;;;;9.70;5.20;;;;;;;-2.88;90.22;100810.38;4973706;28;20465;-71
2022/01/22 07:22:02;;;;;;;3.17;2.10;;;;;;;-2.82;88.82;100821.97;4991000;28;20026;-71
2022/01/22 07:24:33;;;;;;;4.57;2.63;;;;;;;-2.81;88.81;100815.28;4993306;28;20030;-72
2022/01/22 07:26:59;;;;;;;11.07;4.23;;;;;;;-2.98;89.18;100758.09;4993004;28;20381;-71
2022/01/22 07:29:25;;;;;;;7.73;4.20;;;;;;;-2.52;87.82;100807.06;4993166;28;20100;-72
2022/01/22 07:31:52;;;;;;;4.23;1.83;;;;;;;-2.92;86.79;100743.53;4992975;28;20030;-73
2022/01/22 07:34:17;;;;;;;7.37;3.70;;;;;;;-2.62;87.65;100792.66;4992781;28;20026;-69
2022/01/22 07:36:43;;;;;;;8.80;3.67;;;;;;;-2.52;87.71;100799.47;4992900;28;20026;-70
2022/01/22 07:39:08;;;;;;;4.70;2.50;;;;;;;-2.48;86.62;100807.50;4993082;28;20116;-70
2022/01/22 07:41:34;;;;;;;3.27;1.87;;;;;;;-2.54;86.16;100796.81;4993254;28;20494;-70
2022/01/22 07:43:59;;;;;;;8.10;3.73;;;;;;;-2.47;86.50;100794.13;4992565;28;20492;-70
2022/01/22 07:46:25;;;;;;;3.70;1.90;;;;;;;-2.54;86.58;100780.72;4992814;28;20751;-71
2022/01/22 07:48:50;;;;;;;8.60;4.20;;;;;;;-2.30;87.30;100793.16;4993048;28;20026;-74
2022/01/22 07:51:17;;;;;;;9.57;4.50;;;;;;;-2.15;88.00;100797.88;4992715;28;20070;-74
2022/01/22 07:53:46;;;;;;;5.47;2.50;;;;;;;-2.22;86.94;100787.91;4992492;28;20034;-74
2022/01/22 07:56:12;;;;;;;7.82;4.45;;;;;;;-2.10;87.17;100790.72;4992259;28;20507;-73
2022/01/22 07:58:38;;;;;;;4.27;2.47;;;;;;;-2.44;85.70;100741.28;4992624;28;20038;-71
2022/01/22 08:01:03;;;;;;;7.67;3.93;;;;;;;-1.94;86.11;100786.31;4992551;28;20037;-74
2022/01/22 08:03:29;;;;;;;8.53;3.50;;;;;;;-2.14;85.47;100721.22;4992311;28;20069;-74
2022/01/22 08:05:55;;;;;;;4.53;2.43;;;;;;;-1.98;84.12;100786.78;4957889;28;20066;-71
2022/01/22 08:08:21;;;;;;;5.27;2.80;;;;;;;-2.32;84.46;100730.53;4992202;28;20034;-74
2022/01/22 08:10:46;;;;;;;10.73;4.27;;;;;;;-1.86;84.81;100772.69;4992262;28;20526;-72
2022/01/22 08:13:12;;;;;;;8.63;3.23;;;;;;;-1.89;83.73;100757.25;4991921;28;20038;-70
2022/01/22 08:15:37;;;;;;;5.93;2.83;;;;;;;-1.88;84.06;100764.09;4992311;28;20124;-74
2022/01/22 08:18:05;;;;;;;7.80;4.27;;;;;;;-1.75;85.17;100755.09;4992305;28;20129;-72
2022/01/22 08:20:31;;;;;;;8.47;5.00;;;;;;;-1.52;84.59;100765.63;4991996;28;20058;-71
2022/01/22 08:22:56;;;;;;;10.10;5.03;;;;;;;-1.45;84.47;100773.78;4978197;28;20480;-74
2022/01/22 08:25:22;;;;;;;6.93;3.27;;;;;;;-1.56;84.40;100763.56;4991099;28;20030;-70
2022/01/22 08:30:33;;;;;;;8.13;3.93;;;;;;;-1.48;85.15;100747.41;4991417;28;20092;-71
2022/01/22 08:35:53;;;;;;;9.67;3.80;;;;;;;-1.29;84.74;100766.78;4983741;28;20057;-75
2022/01/22 08:38:19;;;;;;;7.33;2.57;;;;;;;-1.36;83.87;100750.19;4991218;28;20022;-73
2022/01/22 08:40:45;;;;;;;6.67;3.33;;;;;;;-1.30;84.91;100757.41;4990911;28;20026;-73
2022/01/22 08:43:10;;;;;;;4.30;2.57;;;;;;;-1.34;83.92;100745.25;4991088;28;20023;-72
2022/01/22 08:45:36;;;;;;;7.40;4.40;;;;;;;-1.27;84.36;100741.59;4990926;28;20033;-70
2022/01/22 08:48:04;;;;;;;5.47;2.70;;;;;;;-1.39;82.85;100716.97;4990759;28;20033;-69
2022/01/22 08:50:34;;;;;;;7.43;3.80;;;;;;;-1.11;82.97;100751.44;4990261;28;20043;-71
2022/01/22 08:53:00;;;;;;;9.13;5.07;;;;;;;-0.97;82.81;100738.34;4991114;28;20044;-70
2022/01/22 08:55:25;;;;;;;5.53;2.93;;;;;;;-1.03;80.47;100742.88;4990946;28;20026;-73
2022/01/22 08:57:51;;;;;;;6.37;2.63;;;;;;;-1.05;80.83;100729.19;4985649;28;20465;-73
2022/01/22 09:00:18;;;;;;;4.93;2.90;;;;;;;-0.89;81.26;100739.88;4987946;28;20038;-70
2022/01/22 09:02:45;;;;;;;5.60;2.97;;;;;;;-0.94;81.63;100750.41;4956455;28;20135;-69
2022/01/22 09:05:12;;;;;;;7.43;3.60;;;;;;;-0.73;80.91;100746.31;4990606;28;20935;-70
2022/01/22 09:07:37;;;;;;;5.30;2.77;;;;;;;-0.76;81.03;100738.41;4990441;28;20022;-71
2022/01/22 09:10:05;;;;;;;4.27;2.00;;;;;;;-0.82;80.27;100727.00;4990334;28;20033;-70
2022/01/22 09:12:30;;;;;;;6.37;3.13;;;;;;;-0.83;79.93;100707.47;4990627;28;20034;-73
2022/01/22 09:14:56;;;;;;;6.30;2.87;;;;;;;-0.56;79.75;100713.13;4990488;28;20034;-77
2022/01/22 09:17:23;;;;;;;6.73;3.10;;;;;;;-0.51;78.36;100711.00;4990753;28;20444;-70
2022/01/22 09:19:48;;;;;;;4.13;2.17;;;;;;;-0.63;78.76;100717.56;4990435;28;20034;-75
2022/01/22 09:22:15;;;;;;;5.97;2.43;;;;;;;-0.67;77.89;100686.84;4990595;28;20022;-70
2022/01/22 09:24:41;;;;;;;7.07;2.20;;;;;;;-0.41;78.85;100711.00;4989347;28;20034;-73
2022/01/22 09:27:07;;;;;;;8.97;3.50;;;;;;;-0.21;80.35;100696.59;4990603;28;20018;-72
2022/01/22 09:29:35;;;;;;;4.53;2.57;;;;;;;-0.41;78.00;100684.75;4988474;28;20037;-69
2022/01/22 09:32:01;;;;;;;7.47;2.93;;;;;;;-0.40;79.22;100668.75;4978317;28;20030;-70
2022/01/22 09:34:26;;;;;;;9.13;4.47;;;;;;;-0.13;79.02;100670.19;4988438;28;20023;-71
2022/01/22 09:36:52;;;;;;;7.13;3.73;;;;;;;0.14;78.90;100653.78;4939984;28;20062;-70
2022/01/22 09:39:17;;;;;;;4.60;2.33;;;;;;;-0.10;76.11;100660.28;4989961;28;20034;-72
2022/01/22 09:41:43;;;;;;;6.63;3.17;;;;;;;-0.04;75.89;100652.28;4989145;28;20556;-69
2022/01/22 09:44:09;;;;;;;6.37;2.47;;;;;;;-0.03;76.16;100661.69;4989917;28;20492;-74
2022/01/22 09:46:36;;;;;;;8.17;4.23;;;;;;;0.04;75.84;100657.97;4990198;28;20077;-72
2022/01/22 09:49:02;;;;;;;8.87;3.40;;;;;;;0.10;75.61;100641.63;4987957;28;20065;-73
2022/01/22 09:51:27;;;;;;;6.50;3.13;;;;;;;0.26;74.13;100647.94;4990449;28;20023;-73
2022/01/22 09:53:53;;;;;;;6.17;2.57;;;;;;;0.26;73.92;100641.22;4939789;28;20045;-70
2022/01/22 09:56:22;;;;;;;2.80;1.70;;;;;;;0.23;73.41;100637.53;4990093;28;20033;-72
2022/01/22 09:58:48;;;;;;;2.97;2.30;;;;;;;0.30;73.28;100627.13;4990145;28;20507;-70
2022/01/22 10:01:21;;;;;;;7.87;3.80;;;;;;;0.51;73.49;100624.50;4990030;28;20069;-72
2022/01/22 10:03:48;;;;;;;4.50;2.00;;;;;;;0.78;69.93;100591.09;4990313;28;20029;-74
2022/01/22 10:06:19;;;;;;;3.43;1.93;;;;;;;0.77;67.46;100612.22;4956509;28;20038;-70
2022/01/22 10:08:46;;;;;;;6.87;2.43;;;;;;;0.71;67.21;100600.66;4923554;28;20113;-71
2022/01/22 10:11:18;;;;;;;6.37;2.50;;;;;;;0.84;68.43;100598.31;4990189;28;20061;-72
2022/01/22 10:13:50;;;;;;;4.70;1.77;;;;;;;0.92;65.95;100599.81;4989605;28;20046;-73
2022/01/22 10:16:27;;;;;;;2.40;1.27;;;;;;;0.77;60.42;100589.34;4990145;28;20027;-72
2022/01/22 10:19:17;;;;;;;4.70;1.77;;;;;;;1.18;62.86;100579.69;4989801;28;20042;-71
2022/01/22 10:21:44;;;;;;;;;;;;;;;1.36;60.34;100586.19;4957076;28;20370;-67
2022/01/22 10:24:51;;;;;;;5.47;2.63;;;;;;;1.39;63.22;100582.97;4972075;28;19914;-72
2022/01/22 10:27:33;;;;;;;3.23;1.60;;;;;;;1.30;61.94;100588.25;4989115;28;20030;-70
2022/01/22 10:30:10;;;;;;;6.13;2.07;;;;;;;1.50;63.05;100573.63;4989769;28;20425;-68
2022/01/22 10:32:51;;;;;;;4.13;1.70;;;;;;;1.36;63.94;100586.19;4989515;28;20030;-67
2022/01/22 10:35:22;;;;;;;3.40;1.37;;;;;;;1.03;62.86;100576.88;4991388;28;20490;-69
2022/01/22 10:37:54;;;;;;;4.77;2.50;;;;;;;1.15;62.75;100571.81;4993205;28;20392;-68
2022/01/22 10:40:30;;;;;;;4.53;2.20;;;;;;;1.19;62.45;100572.19;4984299;28;20041;-69
2022/01/22 10:43:21;;;;;;;4.23;1.70;;;;;;;1.23;62.58;100573.28;4991066;28;20523;-69
2022/01/22 10:49:04;;;;;;;2.97;1.50;;;;;;;0.98;61.90;100570.53;4984197;28;20054;-75
2022/01/22 10:51:31;;;;;;;8.23;3.13;;;;;;;0.67;61.89;100574.13;4990854;28;20037;-72
2022/01/22 10:54:03;;;;;;;4.07;2.40;;;;;;;0.59;61.72;100575.19;4993235;28;20042;-69
2022/01/22 10:56:31;;;;;;;6.50;2.50;;;;;;;0.99;65.64;100570.66;4993192;28;20034;-70
2022/01/22 10:59:04;;;;;;;12.63;6.43;;;;;;;1.31;60.80;100564.59;4993054;28;20026;-69
2022/01/22 11:01:43;;;;;;;5.17;3.17;;;;;;;1.56;62.78;100552.06;4992682;28;20488;-70
2022/01/22 11:04:10;;;;;;;4.18;2.28;;;;;;;1.21;60.65;100512.16;4961306;28;20057;-71
2022/01/22 11:06:38;;;;;;;5.73;1.97;;;;;;;1.66;61.48;100555.25;4992825;28;20030;-70
2022/01/22 11:09:05;;;;;;;4.63;2.00;;;;;;;1.43;60.44;100546.81;4989997;28;20034;-70
2022/01/22 11:11:35;;;;;;;3.97;1.50;;;;;;;1.29;58.88;100527.97;4988283;28;20030;-70
2022/01/22 11:14:03;;;;;;;4.27;2.00;;;;;;;1.60;60.34;100545.53;4956431;28;20041;-69
2022/01/22 11:16:29;;;;;;;9.33;2.60;;;;;;;1.44;60.53;100536.75;4990275;28;20096;-69
2022/01/22 11:18:55;;;;;;;6.77;3.13;;;;;;;1.94;59.75;100550.53;4990861;28;20109;-74
2022/01/22 11:21:22;;;;;;;3.67;1.83;;;;;;;1.67;60.78;100536.69;4990671;28;20027;-72
2022/01/22 11:23:48;;;;;;;5.70;2.90;;;;;;;1.70;57.97;100532.69;4992270;28;20916;-70
2022/01/22 11:26:15;;;;;;;4.63;1.73;;;;;;;0.83;58.36;100453.34;4991080;28;20042;-76
2022/01/22 11:28:47;;;;;;;4.00;2.00;;;;;;;1.36;55.45;100512.41;4989155;28;20041;-71
2022/01/22 11:31:17;;;;;;;6.60;2.57;;;;;;;1.37;57.05;100496.38;4985645;28;20026;-68
2022/01/22 11:33:46;;;;;;;4.70;1.53;;;;;;;1.61;56.79;100524.41;4991328;28;20030;-71
2022/01/22 11:36:14;;;;;;;4.07;1.70;;;;;;;1.36;56.44;100511.50;4992506;28;20029;-72
2022/01/22 11:38:48;;;;;;;4.90;1.80;;;;;;;1.50;57.25;100517.66;4988774;28;20043;-74
2022/01/22 11:41:19;;;;;;;4.10;1.70;;;;;;;1.56;58.70;100518.09;4992016;28;20030;-70
2022/01/22 11:44:16;;;;;;;5.03;1.83;;;;;;;1.57;62.40;100523.28;4992067;28;20062;-72
2022/01/22 11:46:51;;;;;;;7.40;1.80;;;;;;;1.21;60.58;100521.41;4991360;28;20479;-71
2022/01/22 11:49:26;;;;;;;5.23;2.03;;;;;;;1.10;61.86;100523.19;4992203;28;20043;-70
2022/01/22 11:52:11;;;;;;;5.13;1.90;;;;;;;1.07;59.14;100521.28;4991922;28;20034;-69
2022/01/22 11:54:53;;;;;;;7.57;3.00;;;;;;;0.72;59.35;100486.44;4893683;29;20045;-73
2022/01/22 11:57:20;;;;;;;10.50;5.23;;;;;;;0.60;64.82;100521.97;4893848;29;20055;-73
2022/01/22 11:59:46;;;;;;;6.83;3.13;;;;;;;0.52;66.77;100529.75;4893755;29;20133;-70
2022/01/22 12:02:16;;;;;;;4.43;2.40;;;;;;;0.38;70.34;100528.69;4893236;29;20033;-73
2022/01/22 12:04:42;;;;;;;4.53;2.43;;;;;;;0.22;72.72;100546.88;4893574;29;20035;-73
2022/01/22 12:07:07;;;;;;;9.40;4.20;;;;;;;0.18;75.81;100545.75;4894369;29;20127;-73
2022/01/22 12:10:15;;;;;;;5.93;2.83;;;;;;;0.04;75.13;100534.50;4895307;29;20080;-73
2022/01/22 12:15:13;;;;;;;;;;;;;;;-0.22;76.38;100545.97;4892346;29;20152;-73
2022/01/22 12:17:52;;;;;;;3.63;2.20;;;;;;;-0.19;76.61;100540.25;4893878;29;19926;-69
2022/01/22 12:20:42;;;;;;;10.63;5.38;;;;;;;0.06;77.61;100549.84;4893186;29;20051;-70
2022/01/22 12:23:14;;;;;;;;;;;;;;;0.01;76.89;100541.84;4893568;29;20084;-74
2022/01/22 12:25:40;;;;;;;5.53;3.00;;;;;;;0.14;76.34;100542.09;4893325;29;19915;-70
2022/01/22 12:28:32;;;;;;;6.70;2.70;;;;;;;0.13;74.60;100517.47;4893316;29;20533;-71
2022/01/22 12:31:06;;;;;;;5.83;2.77;;;;;;;0.26;73.79;100524.41;4911385;28;20038;-66
2022/01/22 12:33:32;;;;;;;5.37;3.10;;;;;;;0.38;73.01;100526.13;4990020;28;20030;-66
2022/01/22 12:35:59;;;;;;;12.83;6.10;;;;;;;0.31;71.82;100523.13;4988599;28;20037;-66
2022/01/22 12:38:35;;;;;;;6.23;3.13;;;;;;;0.29;73.06;100514.47;4991194;28;20018;-67
2022/01/22 12:41:47;;;;;;;5.93;3.00;;;;;;;0.23;74.77;100521.63;4987782;28;20019;-69
2022/01/22 12:44:05;;;;;;;4.80;2.40;;;;;;;0.33;75.18;100515.63;4989268;28;20046;-66
2022/01/22 12:46:31;;;;;;;11.43;3.43;;;;;;;0.37;76.58;100502.38;4990710;28;20057;-66
2022/01/22 12:48:57;;;;;;;5.70;3.43;;;;;;;0.72;75.12;100519.47;4990603;28;20084;-70
2022/01/22 12:51:26;;;;;;;4.57;2.70;;;;;;;0.94;69.61;100509.28;4990695;28;20033;-68
2022/01/22 12:53:52;;;;;;;5.13;2.17;;;;;;;0.57;68.66;100496.31;4986394;28;20038;-68
2022/01/22 12:59:08;;;;;;;7.57;2.40;;;;;;;0.94;70.61;100491.50;4990701;28;20037;-67
2022/01/22 13:01:35;;;;;;;4.93;2.17;;;;;;;0.98;67.83;100507.00;4990582;28;20049;-69
2022/01/22 13:04:05;;;;;;;5.43;2.40;;;;;;;0.90;68.54;100516.59;4940043;28;20038;-71
2022/01/22 13:06:44;;;;;;;7.03;1.93;;;;;;;0.99;67.04;100509.66;4990324;28;20034;-72
2022/01/22 13:09:11;;;;;;;5.25;2.75;;;;;;;0.98;66.17;100507.88;4990675;28;20117;-71
2022/01/22 13:11:45;;;;;;;2.83;1.60;;;;;;;1.06;65.10;100504.25;4990608;28;20027;-71
2022/01/22 13:14:15;;;;;;;4.33;1.93;;;;;;;0.91;64.24;100501.44;4942020;28;20035;-72
2022/01/22 13:16:49;;;;;;;5.38;2.55;;;;;;;0.99;65.05;100496.94;4990509;28;20068;-71
2022/01/22 13:19:15;;;;;;;4.23;2.30;;;;;;;0.72;61.56;100495.72;4985821;28;20583;-71